createdAt,value
2024-04-18T00:01:21.329Z,4.60
2024-04-18T00:03:48.101Z,4.32
2024-04-18T00:06:14.858Z,5.15
2024-04-18T00:08:43.190Z,4.45
2024-04-18T00:11:25.106Z,4.85
2024-04-18T00:13:51.885Z,4.90
2024-04-18T00:16:37.223Z,4.18
2024-04-18T00:19:16.828Z,3.92
2024-04-18T00:21:57.024Z,5.13
2024-04-18T00:24:28.507Z,4.55
2024-04-18T00:26:55.275Z,4.50
2024-04-18T00:29:32.364Z,4.90
2024-04-18T00:32:08.867Z,5.10
2024-04-18T00:34:35.562Z,4.57
2024-04-18T00:40:05.050Z,4.82
2024-04-18T00:42:40.345Z,4.95
2024-04-18T00:45:08.721Z,5.07
2024-04-18T00:47:48.113Z,5.13
2024-04-18T00:50:17.178Z,5.25
2024-04-18T00:52:44.032Z,4.88
2024-04-18T00:55:25.522Z,5.13
2024-04-18T00:58:11.030Z,4.65
2024-04-18T01:00:42.208Z,4.65
2024-04-18T01:03:28.175Z,5.18
2024-04-18T01:06:21.162Z,5.43
2024-04-18T01:09:07.577Z,4.85
2024-04-18T01:11:34.413Z,5.22
2024-04-18T01:14:09.128Z,4.80
2024-04-18T01:16:54.470Z,5.13
2024-04-18T01:19:21.317Z,4.90
2024-04-18T01:21:48.191Z,5.03
2024-04-18T01:24:15.426Z,5.78
2024-04-18T01:26:42.416Z,5.28
2024-04-18T01:29:09.091Z,5.47
2024-04-18T01:31:35.749Z,6.53
2024-04-18T01:34:02.661Z,6.00
2024-04-18T01:36:29.517Z,6.38
2024-04-18T01:39:16.365Z,6.90
2024-04-18T01:41:43.335Z,5.93
2024-04-18T01:44:30.210Z,6.40
2024-04-18T01:47:23.046Z,5.40
2024-04-18T01:50:06.588Z,5.95
2024-04-18T01:52:33.310Z,5.82
2024-04-18T01:55:04.267Z,5.75
2024-04-18T01:57:38.005Z,6.10
2024-04-18T02:00:23.514Z,7.43
2024-04-18T02:02:50.375Z,6.97
2024-04-18T02:05:35.876Z,6.20
2024-04-18T02:08:15.653Z,6.30
2024-04-18T02:10:49.654Z,6.10
2024-04-18T02:13:36.691Z,5.88
2024-04-18T02:16:04.710Z,6.82
2024-04-18T02:18:48.778Z,5.97
2024-04-18T02:21:15.504Z,6.38
2024-04-18T02:23:54.455Z,6.15
2024-04-18T02:26:23.484Z,6.60
2024-04-18T02:28:50.118Z,6.63
2024-04-18T02:31:16.786Z,6.50
2024-04-18T02:33:51.511Z,7.20
2024-04-18T02:36:18.415Z,6.68
2024-04-18T02:38:45.131Z,7.93
2024-04-18T02:41:11.982Z,7.32
2024-04-18T02:43:55.258Z,6.78
2024-04-18T02:46:23.100Z,6.90
2024-04-18T02:49:08.526Z,5.88
2024-04-18T02:51:54.649Z,6.25
2024-04-18T02:54:39.989Z,6.50
2024-04-18T02:57:06.793Z,6.85
2024-04-18T02:59:33.473Z,6.88
2024-04-18T03:02:20.200Z,6.35
2024-04-18T03:04:47.088Z,6.80
2024-04-18T03:07:13.791Z,7.75
2024-04-18T03:09:49.558Z,7.35
2024-04-18T03:12:28.547Z,6.43
2024-04-18T03:15:14.600Z,6.78
2024-04-18T03:17:41.544Z,5.95
2024-04-18T03:20:28.172Z,6.82
2024-04-18T03:25:54.408Z,6.32
2024-04-18T03:28:21.156Z,7.38
2024-04-18T03:30:47.943Z,7.45
2024-04-18T03:33:14.973Z,6.72
2024-04-18T03:35:42.056Z,7.97
2024-04-18T03:38:15.735Z,8.05
2024-04-18T03:40:42.711Z,8.90
2024-04-18T03:43:09.464Z,9.18
2024-04-18T03:45:36.396Z,8.05
2024-04-18T03:48:22.508Z,7.28
2024-04-18T03:50:49.254Z,7.25
2024-04-18T03:53:18.539Z,7.68
2024-04-18T03:55:45.319Z,6.97
2024-04-18T03:58:11.964Z,7.85
2024-04-18T04:00:48.946Z,7.28
2024-04-18T04:03:16.234Z,7.78
2024-04-18T04:05:43.014Z,8.80
2024-04-18T04:08:10.845Z,7.60
2024-04-18T04:10:43.517Z,8.88
2024-04-18T04:13:10.959Z,8.30
2024-04-18T04:15:52.840Z,8.00
2024-04-18T04:18:38.021Z,7.93
2024-04-18T04:21:17.917Z,7.88
2024-04-18T04:23:45.015Z,8.75
2024-04-18T04:28:38.429Z,8.02
2024-04-18T04:31:05.217Z,8.93
2024-04-18T04:33:35.020Z,8.50
2024-04-18T04:36:01.835Z,8.80
2024-04-18T04:38:28.602Z,8.35
2024-04-18T04:40:55.321Z,8.90
2024-04-18T04:43:22.567Z,7.30
2024-04-18T04:45:54.980Z,8.05
2024-04-18T04:48:36.049Z,8.23
2024-04-18T04:51:11.886Z,7.28
2024-04-18T04:53:38.571Z,7.72
2024-04-18T04:56:05.590Z,8.90
2024-04-18T04:58:32.346Z,8.82
2024-04-18T05:00:59.115Z,8.48
2024-04-18T05:03:38.650Z,7.97
2024-04-18T05:06:24.973Z,7.90
2024-04-18T05:09:10.900Z,8.25
2024-04-18T05:11:37.714Z,7.82
2024-04-18T05:14:27.447Z,9.50
2024-04-18T05:16:54.195Z,8.90
2024-04-18T05:19:23.783Z,7.13
2024-04-18T05:21:50.846Z,7.05
2024-04-18T05:24:32.762Z,7.20
2024-04-18T05:26:59.433Z,6.85
2024-04-18T05:29:44.670Z,8.00
2024-04-18T05:32:11.392Z,7.55
2024-04-18T05:34:38.111Z,8.65
2024-04-18T05:37:05.622Z,7.40
2024-04-18T05:39:32.295Z,7.88
2024-04-18T05:42:00.132Z,7.50
2024-04-18T05:44:31.047Z,7.88
2024-04-18T05:46:58.129Z,7.95
2024-04-18T05:49:25.938Z,7.30
2024-04-18T05:51:52.717Z,6.55
2024-04-18T05:54:32.521Z,8.23
2024-04-18T05:57:06.988Z,7.93
2024-04-18T05:59:55.478Z,7.68
2024-04-18T06:02:22.902Z,6.68
2024-04-18T06:04:49.742Z,6.82
2024-04-18T06:07:35.263Z,6.80
2024-04-18T06:10:02.155Z,6.90
2024-04-18T06:12:29.146Z,5.53
2024-04-18T06:14:55.978Z,4.78
2024-04-18T06:17:22.609Z,4.47
2024-04-18T06:19:50.811Z,4.18
2024-04-18T06:22:32.842Z,5.22
2024-04-18T06:25:18.967Z,6.07
2024-04-18T06:27:46.404Z,6.40
2024-04-18T06:30:13.442Z,6.47
2024-04-18T06:32:40.254Z,6.15
2024-04-18T06:35:07.123Z,5.30
2024-04-18T06:37:33.926Z,5.40
2024-04-18T06:40:01.844Z,4.43
2024-04-18T06:42:30.355Z,5.30
2024-04-18T06:44:57.063Z,4.78
2024-04-18T06:47:23.780Z,4.82
2024-04-18T06:50:09.078Z,4.95
2024-04-18T06:52:35.797Z,4.38
2024-04-18T06:55:03.276Z,4.05
2024-04-18T06:57:42.151Z,4.80
2024-04-18T07:00:11.782Z,4.32
2024-04-18T07:02:38.746Z,4.10
2024-04-18T07:05:24.116Z,5.82
2024-04-18T07:07:54.978Z,4.55
2024-04-18T07:10:31.580Z,5.45
2024-04-18T07:12:58.840Z,4.85
2024-04-18T07:15:27.164Z,5.80
2024-04-18T07:18:13.538Z,7.38
2024-04-18T07:20:41.567Z,6.43
2024-04-18T07:23:08.210Z,6.68
2024-04-18T07:25:38.436Z,7.40
2024-04-18T07:28:25.035Z,7.47
2024-04-18T07:30:52.135Z,5.40
2024-04-18T07:33:18.873Z,5.63
2024-04-18T07:35:59.505Z,6.38
2024-04-18T07:38:29.396Z,5.80
2024-04-18T07:40:56.123Z,5.30
2024-04-18T07:43:22.844Z,5.38
2024-04-18T07:45:50.155Z,5.60
2024-04-18T07:48:16.903Z,5.47
2024-04-18T07:50:45.143Z,5.40
2024-04-18T07:53:12.224Z,5.28
2024-04-18T07:55:38.881Z,5.28
2024-04-18T07:58:06.697Z,5.45
2024-04-18T08:00:35.584Z,5.50
2024-04-18T08:03:05.725Z,5.45
2024-04-18T08:05:36.216Z,5.50
2024-04-18T08:08:08.417Z,5.40
2024-04-18T08:10:52.738Z,5.47
2024-04-18T08:13:29.596Z,6.47
2024-04-18T08:16:05.259Z,6.18
2024-04-18T08:18:32.056Z,6.20
2024-04-18T08:21:00.374Z,5.95
2024-04-18T08:23:27.488Z,5.35
2024-04-18T08:25:54.267Z,5.00
2024-04-18T08:28:21.124Z,5.57
2024-04-18T08:30:47.866Z,4.40
2024-04-18T08:33:14.813Z,5.82
2024-04-18T08:35:44.673Z,4.18
2024-04-18T08:38:12.894Z,4.40
2024-04-18T08:40:39.695Z,4.60
2024-04-18T08:43:06.458Z,4.85
2024-04-18T08:45:36.148Z,3.70
2024-04-18T08:48:05.374Z,4.50
2024-04-18T08:50:32.899Z,4.00
2024-04-18T08:53:01.461Z,3.53
2024-04-18T08:55:30.012Z,3.72
2024-04-18T08:58:05.972Z,3.70
2024-04-18T09:00:35.568Z,2.55
2024-04-18T09:03:03.116Z,3.00
2024-04-18T09:05:30.126Z,3.10
2024-04-18T09:07:57.180Z,2.47
2024-04-18T09:10:24.814Z,2.17
2024-04-18T09:12:55.561Z,2.42
2024-04-18T09:15:24.104Z,1.63
2024-04-18T09:18:19.105Z,1.90
2024-04-18T09:20:46.307Z,1.90
2024-04-18T09:23:13.022Z,2.13
2024-04-18T09:25:42.662Z,2.13
2024-04-18T09:28:11.242Z,2.28
2024-04-18T09:30:40.824Z,1.58
2024-04-18T09:33:08.782Z,2.05
2024-04-18T09:35:36.642Z,1.42
2024-04-18T09:38:10.131Z,1.35
2024-04-18T09:40:44.267Z,1.45
2024-04-18T09:43:23.259Z,1.30
2024-04-18T09:46:00.298Z,1.70
2024-04-18T09:48:28.019Z,1.92
2024-04-18T09:50:55.066Z,1.40
2024-04-18T09:53:22.915Z,1.40
2024-04-18T09:55:50.909Z,1.70
2024-04-18T09:58:22.929Z,1.65
2024-04-18T10:00:50.096Z,1.30
2024-04-18T10:03:17.871Z,1.45
2024-04-18T10:05:49.384Z,1.70
2024-04-18T10:08:22.540Z,1.50
2024-04-18T10:10:51.369Z,1.30
2024-04-18T10:13:22.985Z,1.50
2024-04-18T10:15:49.931Z,1.20
2024-04-18T10:18:18.368Z,2.30
2024-04-18T10:20:46.450Z,1.30
2024-04-18T10:23:17.122Z,0.85
2024-04-18T10:25:45.325Z,0.88
2024-04-18T10:28:21.798Z,2.40
2024-04-18T10:30:48.891Z,3.13
2024-04-18T10:33:16.297Z,1.60
2024-04-18T10:35:43.681Z,1.63
2024-04-18T10:38:10.331Z,1.15
2024-04-18T10:40:57.615Z,0.90
2024-04-18T10:43:27.941Z,1.05
2024-04-18T10:45:55.966Z,1.08
2024-04-18T10:48:23.622Z,1.08
2024-04-18T10:50:53.987Z,0.95
2024-04-18T10:53:21.303Z,1.10
2024-04-18T10:55:48.397Z,1.00
2024-04-18T10:58:18.166Z,1.10
2024-04-18T11:00:45.558Z,1.27
2024-04-18T11:03:13.481Z,1.10
2024-04-18T11:05:44.944Z,0.90
2024-04-18T11:08:20.824Z,0.98
2024-04-18T11:10:48.029Z,1.00
2024-04-18T11:13:16.842Z,1.48
2024-04-18T11:15:43.839Z,0.90
2024-04-18T11:18:10.779Z,0.90
2024-04-18T11:20:37.821Z,0.70
2024-04-18T11:23:13.207Z,1.00
2024-04-18T11:25:43.217Z,0.90
2024-04-18T11:28:10.458Z,0.90
2024-04-18T11:30:42.796Z,0.90
2024-04-18T11:33:12.828Z,0.95
2024-04-18T11:35:39.965Z,2.00
2024-04-18T11:40:43.732Z,1.13
2024-04-18T11:43:10.903Z,1.00
2024-04-18T11:45:38.342Z,0.90
2024-04-18T11:48:06.294Z,0.70
2024-04-18T11:50:33.382Z,0.90
2024-04-18T11:53:06.556Z,0.60
2024-04-18T11:55:33.281Z,0.90
2024-04-18T11:58:19.959Z,1.00
2024-04-18T12:00:47.280Z,0.90
2024-04-18T12:03:14.168Z,0.85
2024-04-18T12:06:09.902Z,0.80
2024-04-18T12:08:55.023Z,0.85
2024-04-18T12:11:28.749Z,0.80
2024-04-18T12:14:10.848Z,0.75
2024-04-18T12:16:54.615Z,0.60
2024-04-18T12:19:41.224Z,0.60
2024-04-18T12:22:11.715Z,0.45
2024-04-18T12:24:38.475Z,0.80
2024-04-18T12:27:08.705Z,0.70
2024-04-18T12:29:53.425Z,0.80
2024-04-18T12:32:21.847Z,0.77
2024-04-18T12:34:52.012Z,1.00
2024-04-18T12:37:18.956Z,1.00
2024-04-18T12:39:49.593Z,0.80
2024-04-18T12:42:25.893Z,0.75
2024-04-18T12:44:52.624Z,0.70
2024-04-18T12:47:22.054Z,1.52
2024-04-18T12:49:49.751Z,1.02
2024-04-18T12:52:17.074Z,1.05
2024-04-18T12:54:43.957Z,1.00
2024-04-18T12:57:37.074Z,1.15
2024-04-18T13:00:05.455Z,1.17
2024-04-18T13:02:52.431Z,1.00
2024-04-18T13:05:34.750Z,0.85
2024-04-18T13:08:05.257Z,0.80
2024-04-18T13:11:04.567Z,0.77
2024-04-18T13:13:31.487Z,0.90
2024-04-18T13:16:13.325Z,0.82
2024-04-18T13:18:41.035Z,0.95
2024-04-18T13:21:16.600Z,0.82
2024-04-18T13:23:44.186Z,1.23
2024-04-18T13:26:17.544Z,1.60
2024-04-18T13:28:44.296Z,0.90
2024-04-18T13:31:14.142Z,1.10
2024-04-18T13:33:52.361Z,0.80
2024-04-18T13:36:20.669Z,0.90
2024-04-18T13:38:58.831Z,0.93
2024-04-18T13:41:37.432Z,1.33
2024-04-18T13:44:19.407Z,1.20
2024-04-18T13:46:46.555Z,0.90
2024-04-18T13:49:36.437Z,1.15
2024-04-18T13:52:03.210Z,0.90
2024-04-18T13:54:33.408Z,1.00
2024-04-18T13:57:00.138Z,1.08
2024-04-18T13:59:43.043Z,0.80
2024-04-18T14:02:48.431Z,1.05
2024-04-18T14:05:22.817Z,1.08
2024-04-18T14:08:02.865Z,1.13
2024-04-18T14:10:30.122Z,0.90
2024-04-18T14:13:16.049Z,1.20
2024-04-18T14:16:11.817Z,1.10
2024-04-18T14:18:52.119Z,1.17
2024-04-18T14:21:35.085Z,1.13
2024-04-18T14:24:04.878Z,0.90
2024-04-18T14:26:31.832Z,1.10
2024-04-18T14:29:17.422Z,0.90
2024-04-18T14:32:01.492Z,1.27
2024-04-18T14:34:47.930Z,1.08
2024-04-18T14:37:17.244Z,1.08
2024-04-18T14:39:44.133Z,1.23
2024-04-18T14:42:10.912Z,1.02
2024-04-18T14:44:37.731Z,1.13
2024-04-18T14:47:14.942Z,0.85
2024-04-18T14:50:00.459Z,1.00
2024-04-18T14:52:34.013Z,1.15
2024-04-18T14:55:01.000Z,1.20
2024-04-18T14:57:33.992Z,1.15
2024-04-18T15:02:45.998Z,1.00
2024-04-18T15:05:31.903Z,0.90
2024-04-18T15:08:01.907Z,1.30
2024-04-18T15:10:47.423Z,1.30
2024-04-18T15:13:14.374Z,1.02
2024-04-18T15:15:43.566Z,1.20
2024-04-18T15:18:12.473Z,1.05
2024-04-18T15:20:39.406Z,1.10
2024-04-18T15:23:10.189Z,1.00
2024-04-18T15:25:38.319Z,1.02
2024-04-18T15:28:05.779Z,1.10
2024-04-18T15:30:32.524Z,0.90
2024-04-18T15:33:18.125Z,0.95
2024-04-18T15:35:45.106Z,0.95
2024-04-18T15:38:17.728Z,1.10
2024-04-18T15:41:03.007Z,1.00
2024-04-18T15:43:37.762Z,0.90
2024-04-18T15:46:05.009Z,0.90
2024-04-18T15:48:32.037Z,1.00
2024-04-18T15:50:59.270Z,0.93
2024-04-18T15:53:29.883Z,1.02
2024-04-18T15:56:05.915Z,1.10
2024-04-18T15:58:52.867Z,1.10
2024-04-18T16:01:19.524Z,1.25
2024-04-18T16:04:06.318Z,1.00
2024-04-18T16:06:53.215Z,1.38
2024-04-18T16:09:39.936Z,1.00
2024-04-18T16:12:27.207Z,1.10
2024-04-18T16:15:00.609Z,0.80
2024-04-18T16:17:27.448Z,1.15
2024-04-18T16:20:10.287Z,1.23
2024-04-18T16:22:39.965Z,1.13
2024-04-18T16:25:27.803Z,1.25
2024-04-18T16:27:54.826Z,0.90
2024-04-18T16:30:21.600Z,1.13
2024-04-18T16:32:48.985Z,1.10
2024-04-18T16:35:16.374Z,1.13
2024-04-18T16:37:45.509Z,1.40
2024-04-18T16:40:16.451Z,1.20
2024-04-18T16:42:59.004Z,1.10
2024-04-18T16:45:26.427Z,1.00
2024-04-18T16:47:53.235Z,1.00
2024-04-18T16:50:20.246Z,1.30
2024-04-18T16:52:50.828Z,1.45
2024-04-18T16:55:36.758Z,1.27
2024-04-18T16:58:16.575Z,1.23
2024-04-18T17:00:58.149Z,1.15
2024-04-18T17:03:25.995Z,0.98
2024-04-18T17:06:01.895Z,0.80
2024-04-18T17:08:28.827Z,0.80
2024-04-18T17:10:55.672Z,1.00
2024-04-18T17:13:41.078Z,1.00
2024-04-18T17:16:11.810Z,0.70
2024-04-18T17:18:45.762Z,0.85
2024-04-18T17:21:12.571Z,1.40
2024-04-18T17:23:39.317Z,1.27
2024-04-18T17:26:06.315Z,0.85
2024-04-18T17:28:33.119Z,1.27
2024-04-18T17:31:03.599Z,1.02
2024-04-18T17:33:31.159Z,1.25
2024-04-18T17:36:01.175Z,0.85
2024-04-18T17:38:48.368Z,1.05
2024-04-18T17:41:31.027Z,1.00
2024-04-18T17:44:16.871Z,1.00
2024-04-18T17:47:00.578Z,0.95
2024-04-18T17:49:27.822Z,0.82
2024-04-18T17:51:55.077Z,0.80
2024-04-18T17:54:22.700Z,1.10
2024-04-18T17:56:49.559Z,1.35
2024-04-18T17:59:16.331Z,1.20
2024-04-18T18:01:44.269Z,1.40
2024-04-18T18:04:13.004Z,1.65
2024-04-18T18:06:39.997Z,1.20
2024-04-18T18:09:07.082Z,1.40
2024-04-18T18:11:33.810Z,1.20
2024-04-18T18:14:01.890Z,1.30
2024-04-18T18:16:48.535Z,1.38
2024-04-18T18:19:15.332Z,1.05
2024-04-18T18:21:56.006Z,1.42
2024-04-18T18:24:23.011Z,1.10
2024-04-18T18:26:49.708Z,1.20
2024-04-18T18:29:18.376Z,0.95
2024-04-18T18:32:04.056Z,1.25
2024-04-18T18:34:31.101Z,1.38
2024-04-18T18:36:57.747Z,1.40
2024-04-18T18:39:24.787Z,1.10
2024-04-18T18:41:51.657Z,1.33
2024-04-18T18:44:19.098Z,1.40
2024-04-18T18:46:45.863Z,1.75
2024-04-18T18:49:16.018Z,1.77
2024-04-18T18:51:44.784Z,1.40
2024-04-18T18:54:12.534Z,1.30
2024-04-18T18:56:40.913Z,1.70
2024-04-18T18:59:26.846Z,1.50
2024-04-18T19:01:53.677Z,1.45
2024-04-18T19:04:21.567Z,1.63
2024-04-18T19:06:48.528Z,2.13
2024-04-18T19:09:18.506Z,2.75
2024-04-18T19:11:45.500Z,2.50
2024-04-18T19:14:13.109Z,1.98
2024-04-18T19:17:03.056Z,1.98
2024-04-18T19:19:30.080Z,1.95
2024-04-18T19:21:56.888Z,1.88
2024-04-18T19:24:23.681Z,3.60
2024-04-18T19:27:02.692Z,3.05
2024-04-18T19:29:39.950Z,2.72
2024-04-18T19:32:13.952Z,2.72
2024-04-18T19:34:40.742Z,2.70
2024-04-18T19:37:07.712Z,2.22
2024-04-18T19:39:34.547Z,1.92
2024-04-18T19:42:01.408Z,2.58
2024-04-18T19:44:28.771Z,2.33
2024-04-18T19:46:55.547Z,2.45
2024-04-18T19:49:22.427Z,2.40
2024-04-18T19:54:28.471Z,2.42
2024-04-18T19:56:55.489Z,2.70
2024-04-18T19:59:23.142Z,2.25
2024-04-18T20:01:49.895Z,2.10
2024-04-18T20:04:19.437Z,2.00
2024-04-18T20:06:46.211Z,1.75
2024-04-18T20:09:13.061Z,2.42
2024-04-18T20:11:39.745Z,2.05
2024-04-18T20:14:06.562Z,1.85
2024-04-18T20:16:33.802Z,1.90
2024-04-18T20:19:13.942Z,2.25
2024-04-18T20:21:43.111Z,1.85
2024-04-18T20:24:13.555Z,2.95
2024-04-18T20:26:59.406Z,1.88
2024-04-18T20:29:45.315Z,1.70
2024-04-18T20:32:21.227Z,1.80
2024-04-18T20:34:48.870Z,1.80
2024-04-18T20:37:16.228Z,1.80
2024-04-18T20:39:43.129Z,2.03
2024-04-18T20:42:09.794Z,1.55
2024-04-18T20:44:36.687Z,2.03
2024-04-18T20:47:03.521Z,1.67
2024-04-18T20:49:30.433Z,1.52
2024-04-18T20:51:57.174Z,1.92
2024-04-18T20:54:44.024Z,1.50
2024-04-18T20:57:10.722Z,1.60
2024-04-18T20:59:37.536Z,1.30
2024-04-18T21:02:07.131Z,2.13
2024-04-18T21:04:33.833Z,1.70
2024-04-18T21:07:00.570Z,1.30
2024-04-18T21:09:27.367Z,1.65
2024-04-18T21:11:54.167Z,1.35
2024-04-18T21:14:20.877Z,1.35
2024-04-18T21:16:47.591Z,1.85
2024-04-18T21:19:17.259Z,1.60
2024-04-18T21:21:46.641Z,1.75
2024-04-18T21:24:14.164Z,1.70
2024-04-18T21:26:47.901Z,1.45
2024-04-18T21:29:15.931Z,1.60
2024-04-18T21:31:42.917Z,1.52
2024-04-18T21:34:11.700Z,1.40
2024-04-18T21:36:38.783Z,1.67
2024-04-18T21:39:05.879Z,1.40
2024-04-18T21:41:32.816Z,1.63
2024-04-18T21:43:59.717Z,1.40
2024-04-18T21:46:26.847Z,1.92
2024-04-18T21:48:53.726Z,1.30
2024-04-18T21:51:20.918Z,1.63
2024-04-18T21:53:47.738Z,1.30
2024-04-18T21:56:14.520Z,1.65
2024-04-18T21:58:41.337Z,1.73
2024-04-18T22:01:28.747Z,1.42
2024-04-18T22:03:55.690Z,2.05
2024-04-18T22:06:22.596Z,1.77
2024-04-18T22:08:49.474Z,2.03
2024-04-18T22:11:16.153Z,2.05
2024-04-18T22:13:42.898Z,1.98
2024-04-18T22:16:09.543Z,1.80
2024-04-18T22:18:36.522Z,1.90
2024-04-18T22:21:03.415Z,1.80
2024-04-18T22:23:30.174Z,2.15
2024-04-18T22:25:56.991Z,1.98
2024-04-18T22:28:23.807Z,1.70
2024-04-18T22:31:02.863Z,1.52
2024-04-18T22:33:30.284Z,1.85
2024-04-18T22:35:57.433Z,1.70
2024-04-18T22:38:24.215Z,2.10
2024-04-18T22:40:51.455Z,1.80
2024-04-18T22:43:19.362Z,1.73
2024-04-18T22:45:47.102Z,1.77
2024-04-18T22:48:14.124Z,1.52
2024-04-18T22:50:44.640Z,2.10
2024-04-18T22:53:11.633Z,1.92
2024-04-18T22:55:38.547Z,2.20
2024-04-18T22:58:08.034Z,2.05
2024-04-18T23:00:38.979Z,1.77
2024-04-18T23:03:06.554Z,2.13
2024-04-18T23:05:36.594Z,2.00
2024-04-18T23:08:03.985Z,2.10
2024-04-18T23:10:32.321Z,2.00
2024-04-18T23:12:59.382Z,2.15
2024-04-18T23:15:45.379Z,1.92
2024-04-18T23:18:12.372Z,2.58
2024-04-18T23:20:39.607Z,2.25
2024-04-18T23:23:06.444Z,2.03
2024-04-18T23:25:33.214Z,1.83
2024-04-18T23:27:59.979Z,2.28
2024-04-18T23:30:26.761Z,2.35
2024-04-18T23:32:54.345Z,2.65
2024-04-18T23:35:22.063Z,2.20
2024-04-18T23:37:48.863Z,2.78
2024-04-18T23:40:18.258Z,2.65
2024-04-18T23:42:45.130Z,2.25
2024-04-18T23:45:12.053Z,2.88
2024-04-18T23:47:39.012Z,2.25
2024-04-18T23:50:06.615Z,2.65
2024-04-18T23:52:33.283Z,2.50
2024-04-18T23:54:59.953Z,2.40
2024-04-18T23:57:27.893Z,2.30
2024-04-18T23:59:54.580Z,2.33
